Terminal Aerodrome Forecast
Issued by NWS Sioux Falls, SD

Home | Current Version | Previous Version | Graphics & Text | Print | Product List | Glossary On
Versions: 1 2 3 4 5 6 7 8 9 10 11 12 13 14 15 16 17 18 19
000
FTUS43 KFSD 282320
TAFHON
TAF
KHON 282320Z 2900/2924 04008KT P6SM SCT080
     FM290200 02010KT P6SM VCSH SCT050
     FM290900 03010KT P6SM OVC008
     FM291700 07010KT P6SM BKN015
     FM292200 09012KT P6SM BKN035=

USA.gov is the U.S. government's official web portal to all federal, state and local government web resources and services.